sensor_id;sensor_type;location;lat;lon;timestamp;temperature;humidity
11772;DHT22;12556;55.748;13.194;2023-08-06T00:00:55;14.30;99.90
11772;DHT22;12556;55.748;13.194;2023-08-06T00:03:22;14.30;99.90
11772;DHT22;12556;55.748;13.194;2023-08-06T00:05:50;14.30;99.90
11772;DHT22;12556;55.748;13.194;2023-08-06T00:08:17;14.30;99.90
11772;DHT22;12556;55.748;13.194;2023-08-06T00:10:44;14.40;99.90
11772;DHT22;12556;55.748;13.194;2023-08-06T00:13:11;14.30;99.90
11772;DHT22;12556;55.748;13.194;2023-08-06T00:15:38;14.30;99.90
11772;DHT22;12556;55.748;13.194;2023-08-06T00:18:04;14.30;99.90
11772;DHT22;12556;55.748;13.194;2023-08-06T00:20:31;14.30;99.90
11772;DHT22;12556;55.748;13.194;2023-08-06T00:22:59;14.20;99.90
11772;DHT22;12556;55.748;13.194;2023-08-06T00:25:27;14.20;99.90
11772;DHT22;12556;55.748;13.194;2023-08-06T00:27:53;14.20;99.90
11772;DHT22;12556;55.748;13.194;2023-08-06T00:30:22;14.20;99.90
11772;DHT22;12556;55.748;13.194;2023-08-06T00:32:48;14.20;99.90
11772;DHT22;12556;55.748;13.194;2023-08-06T00:35:15;14.20;99.90
11772;DHT22;12556;55.748;13.194;2023-08-06T00:37:42;14.20;99.90
11772;DHT22;12556;55.748;13.194;2023-08-06T00:40:10;14.20;99.90
11772;DHT22;12556;55.748;13.194;2023-08-06T00:42:37;14.20;99.90
11772;DHT22;12556;55.748;13.194;2023-08-06T00:45:05;14.10;99.90
11772;DHT22;12556;55.748;13.194;2023-08-06T00:47:32;14.10;99.90
11772;DHT22;12556;55.748;13.194;2023-08-06T00:49:59;14.10;99.90
11772;DHT22;12556;55.748;13.194;2023-08-06T00:52:25;14.00;99.90
11772;DHT22;12556;55.748;13.194;2023-08-06T00:54:52;14.00;99.90
11772;DHT22;12556;55.748;13.194;2023-08-06T00:57:23;14.00;99.90
11772;DHT22;12556;55.748;13.194;2023-08-06T00:59:51;14.00;99.90
11772;DHT22;12556;55.748;13.194;2023-08-06T01:02:18;14.00;99.90
11772;DHT22;12556;55.748;13.194;2023-08-06T01:04:45;13.90;99.90
11772;DHT22;12556;55.748;13.194;2023-08-06T01:07:19;13.90;99.90
11772;DHT22;12556;55.748;13.194;2023-08-06T01:09:57;13.90;99.90
11772;DHT22;12556;55.748;13.194;2023-08-06T01:12:38;13.90;99.90
11772;DHT22;12556;55.748;13.194;2023-08-06T01:15:16;13.80;99.90
11772;DHT22;12556;55.748;13.194;2023-08-06T01:17:45;13.80;99.90
11772;DHT22;12556;55.748;13.194;2023-08-06T01:20:13;13.80;99.90
11772;DHT22;12556;55.748;13.194;2023-08-06T01:22:41;13.80;99.90
11772;DHT22;12556;55.748;13.194;2023-08-06T01:25:08;13.80;99.90
11772;DHT22;12556;55.748;13.194;2023-08-06T01:27:42;13.80;99.90
11772;DHT22;12556;55.748;13.194;2023-08-06T01:30:13;13.70;99.90
11772;DHT22;12556;55.748;13.194;2023-08-06T01:32:44;13.70;99.90
11772;DHT22;12556;55.748;13.194;2023-08-06T01:35:12;13.70;99.90
11772;DHT22;12556;55.748;13.194;2023-08-06T01:37:42;13.70;99.90
11772;DHT22;12556;55.748;13.194;2023-08-06T01:40:10;13.60;99.90
11772;DHT22;12556;55.748;13.194;2023-08-06T01:42:37;13.60;99.90
11772;DHT22;12556;55.748;13.194;2023-08-06T01:45:05;13.60;99.90
11772;DHT22;12556;55.748;13.194;2023-08-06T01:47:33;13.60;99.90
11772;DHT22;12556;55.748;13.194;2023-08-06T01:49:59;13.70;99.90
11772;DHT22;12556;55.748;13.194;2023-08-06T01:52:27;13.60;99.90
11772;DHT22;12556;55.748;13.194;2023-08-06T01:54:55;13.60;99.90
11772;DHT22;12556;55.748;13.194;2023-08-06T01:57:22;13.60;99.90
11772;DHT22;12556;55.748;13.194;2023-08-06T01:59:49;13.60;99.90
11772;DHT22;12556;55.748;13.194;2023-08-06T02:02:15;13.60;99.90
11772;DHT22;12556;55.748;13.194;2023-08-06T02:04:42;13.60;99.90
11772;DHT22;12556;55.748;13.194;2023-08-06T02:07:09;13.60;99.90
11772;DHT22;12556;55.748;13.194;2023-08-06T02:09:36;13.60;99.90
11772;DHT22;12556;55.748;13.194;2023-08-06T02:12:05;13.60;99.90
11772;DHT22;12556;55.748;13.194;2023-08-06T02:14:32;13.50;99.90
11772;DHT22;12556;55.748;13.194;2023-08-06T02:16:59;13.50;99.90
11772;DHT22;12556;55.748;13.194;2023-08-06T02:19:26;13.50;99.90
11772;DHT22;12556;55.748;13.194;2023-08-06T02:21:54;13.50;99.90
11772;DHT22;12556;55.748;13.194;2023-08-06T02:24:21;13.60;99.90
11772;DHT22;12556;55.748;13.194;2023-08-06T02:26:48;13.60;99.90
11772;DHT22;12556;55.748;13.194;2023-08-06T02:29:18;13.60;99.90
11772;DHT22;12556;55.748;13.194;2023-08-06T02:31:44;13.60;99.90
11772;DHT22;12556;55.748;13.194;2023-08-06T02:34:11;13.60;99.90
11772;DHT22;12556;55.748;13.194;2023-08-06T02:36:38;13.60;99.90
11772;DHT22;12556;55.748;13.194;2023-08-06T02:39:05;13.70;99.90
11772;DHT22;12556;55.748;13.194;2023-08-06T02:41:32;13.60;99.90
11772;DHT22;12556;55.748;13.194;2023-08-06T02:43:59;13.60;99.90
11772;DHT22;12556;55.748;13.194;2023-08-06T02:46:27;13.60;99.90
11772;DHT22;12556;55.748;13.194;2023-08-06T02:48:53;13.60;99.90
11772;DHT22;12556;55.748;13.194;2023-08-06T02:51:20;13.70;99.90
11772;DHT22;12556;55.748;13.194;2023-08-06T02:53:48;13.60;99.90
11772;DHT22;12556;55.748;13.194;2023-08-06T02:56:15;13.60;99.90
11772;DHT22;12556;55.748;13.194;2023-08-06T02:58:42;13.60;99.90
11772;DHT22;12556;55.748;13.194;2023-08-06T03:01:08;13.60;99.90
11772;DHT22;12556;55.748;13.194;2023-08-06T03:03:36;13.60;99.90
11772;DHT22;12556;55.748;13.194;2023-08-06T03:06:03;13.70;99.90
11772;DHT22;12556;55.748;13.194;2023-08-06T03:08:31;13.70;99.90
11772;DHT22;12556;55.748;13.194;2023-08-06T03:10:57;13.70;99.90
11772;DHT22;12556;55.748;13.194;2023-08-06T03:13:24;13.70;99.90
11772;DHT22;12556;55.748;13.194;2023-08-06T03:15:55;13.70;99.90
11772;DHT22;12556;55.748;13.194;2023-08-06T03:18:22;13.70;99.90
11772;DHT22;12556;55.748;13.194;2023-08-06T03:20:50;13.70;99.90
11772;DHT22;12556;55.748;13.194;2023-08-06T03:23:18;13.70;99.90
11772;DHT22;12556;55.748;13.194;2023-08-06T03:25:45;13.70;99.90
11772;DHT22;12556;55.748;13.194;2023-08-06T03:28:11;13.80;99.90
11772;DHT22;12556;55.748;13.194;2023-08-06T03:30:39;13.80;99.90
11772;DHT22;12556;55.748;13.194;2023-08-06T03:33:06;13.80;99.90
11772;DHT22;12556;55.748;13.194;2023-08-06T03:35:32;13.80;99.90
11772;DHT22;12556;55.748;13.194;2023-08-06T03:38:01;13.80;99.90
11772;DHT22;12556;55.748;13.194;2023-08-06T03:40:28;13.80;99.90
11772;DHT22;12556;55.748;13.194;2023-08-06T03:42:54;13.80;99.90
11772;DHT22;12556;55.748;13.194;2023-08-06T03:45:21;13.80;99.90
11772;DHT22;12556;55.748;13.194;2023-08-06T03:47:48;13.80;99.90
11772;DHT22;12556;55.748;13.194;2023-08-06T03:50:15;13.90;99.90
11772;DHT22;12556;55.748;13.194;2023-08-06T03:52:42;13.90;99.90
11772;DHT22;12556;55.748;13.194;2023-08-06T03:55:10;13.90;99.90
11772;DHT22;12556;55.748;13.194;2023-08-06T03:57:37;13.90;99.90
11772;DHT22;12556;55.748;13.194;2023-08-06T04:00:05;13.90;99.90
11772;DHT22;12556;55.748;13.194;2023-08-06T04:02:32;13.90;99.90
11772;DHT22;12556;55.748;13.194;2023-08-06T04:05:00;13.90;99.90
11772;DHT22;12556;55.748;13.194;2023-08-06T04:07:27;13.90;99.90
11772;DHT22;12556;55.748;13.194;2023-08-06T04:09:55;13.90;99.90
11772;DHT22;12556;55.748;13.194;2023-08-06T04:12:23;13.90;99.90
11772;DHT22;12556;55.748;13.194;2023-08-06T04:14:50;13.90;99.90
11772;DHT22;12556;55.748;13.194;2023-08-06T04:17:18;13.90;99.90
11772;DHT22;12556;55.748;13.194;2023-08-06T04:19:47;13.90;99.90
11772;DHT22;12556;55.748;13.194;2023-08-06T04:22:14;14.00;99.90
11772;DHT22;12556;55.748;13.194;2023-08-06T04:24:41;14.00;99.90
11772;DHT22;12556;55.748;13.194;2023-08-06T04:27:09;14.00;99.90
11772;DHT22;12556;55.748;13.194;2023-08-06T04:29:38;14.00;99.90
11772;DHT22;12556;55.748;13.194;2023-08-06T04:32:08;14.00;99.90
11772;DHT22;12556;55.748;13.194;2023-08-06T04:34:35;14.00;99.90
11772;DHT22;12556;55.748;13.194;2023-08-06T04:37:03;14.10;99.90
11772;DHT22;12556;55.748;13.194;2023-08-06T04:39:30;14.00;99.90
11772;DHT22;12556;55.748;13.194;2023-08-06T04:41:57;14.10;99.90
11772;DHT22;12556;55.748;13.194;2023-08-06T04:44:24;14.00;99.90
11772;DHT22;12556;55.748;13.194;2023-08-06T04:46:52;14.10;99.90
11772;DHT22;12556;55.748;13.194;2023-08-06T04:49:20;14.20;99.90
11772;DHT22;12556;55.748;13.194;2023-08-06T04:51:47;14.20;99.90
11772;DHT22;12556;55.748;13.194;2023-08-06T04:54:14;14.20;99.90
11772;DHT22;12556;55.748;13.194;2023-08-06T04:56:41;14.30;99.90
11772;DHT22;12556;55.748;13.194;2023-08-06T04:59:08;14.30;99.90
11772;DHT22;12556;55.748;13.194;2023-08-06T05:01:35;14.30;99.90
11772;DHT22;12556;55.748;13.194;2023-08-06T05:04:03;14.30;99.90
11772;DHT22;12556;55.748;13.194;2023-08-06T05:06:30;14.40;99.90
11772;DHT22;12556;55.748;13.194;2023-08-06T05:08:57;14.50;99.90
11772;DHT22;12556;55.748;13.194;2023-08-06T05:11:24;14.50;99.90
11772;DHT22;12556;55.748;13.194;2023-08-06T05:13:51;14.50;99.90
11772;DHT22;12556;55.748;13.194;2023-08-06T05:16:18;14.60;99.90
11772;DHT22;12556;55.748;13.194;2023-08-06T05:18:44;14.60;99.90
11772;DHT22;12556;55.748;13.194;2023-08-06T05:21:13;14.50;99.90
11772;DHT22;12556;55.748;13.194;2023-08-06T05:23:39;14.60;99.90
11772;DHT22;12556;55.748;13.194;2023-08-06T05:26:06;14.60;99.90
11772;DHT22;12556;55.748;13.194;2023-08-06T05:28:34;14.60;99.90
11772;DHT22;12556;55.748;13.194;2023-08-06T05:31:03;14.60;99.90
11772;DHT22;12556;55.748;13.194;2023-08-06T05:33:30;14.60;99.90
11772;DHT22;12556;55.748;13.194;2023-08-06T05:35:57;14.60;99.90
11772;DHT22;12556;55.748;13.194;2023-08-06T05:38:25;14.60;99.90
11772;DHT22;12556;55.748;13.194;2023-08-06T05:40:52;14.60;99.90
11772;DHT22;12556;55.748;13.194;2023-08-06T05:43:19;14.60;99.90
11772;DHT22;12556;55.748;13.194;2023-08-06T05:45:46;14.70;99.90
11772;DHT22;12556;55.748;13.194;2023-08-06T05:48:13;14.70;99.90
11772;DHT22;12556;55.748;13.194;2023-08-06T05:50:40;14.70;99.90
11772;DHT22;12556;55.748;13.194;2023-08-06T05:53:07;14.70;99.90
11772;DHT22;12556;55.748;13.194;2023-08-06T05:55:35;14.70;99.90
11772;DHT22;12556;55.748;13.194;2023-08-06T05:58:02;14.80;99.90
11772;DHT22;12556;55.748;13.194;2023-08-06T06:00:29;14.80;99.90
11772;DHT22;12556;55.748;13.194;2023-08-06T06:02:56;14.90;99.90
11772;DHT22;12556;55.748;13.194;2023-08-06T06:05:22;14.90;99.90
11772;DHT22;12556;55.748;13.194;2023-08-06T06:07:49;15.10;99.90
11772;DHT22;12556;55.748;13.194;2023-08-06T06:10:16;15.10;99.90
11772;DHT22;12556;55.748;13.194;2023-08-06T06:12:44;15.10;99.90
11772;DHT22;12556;55.748;13.194;2023-08-06T06:15:11;15.20;99.90
11772;DHT22;12556;55.748;13.194;2023-08-06T06:17:38;15.30;99.90
11772;DHT22;12556;55.748;13.194;2023-08-06T06:20:06;15.30;99.90
11772;DHT22;12556;55.748;13.194;2023-08-06T06:22:33;15.40;99.90
11772;DHT22;12556;55.748;13.194;2023-08-06T06:25:00;15.40;99.90
11772;DHT22;12556;55.748;13.194;2023-08-06T06:27:27;15.50;99.90
11772;DHT22;12556;55.748;13.194;2023-08-06T06:29:55;15.70;99.90
11772;DHT22;12556;55.748;13.194;2023-08-06T06:32:22;15.70;99.90
11772;DHT22;12556;55.748;13.194;2023-08-06T06:34:49;15.90;99.90
11772;DHT22;12556;55.748;13.194;2023-08-06T06:37:15;16.00;99.90
11772;DHT22;12556;55.748;13.194;2023-08-06T06:39:43;16.10;99.90
11772;DHT22;12556;55.748;13.194;2023-08-06T06:42:10;16.00;99.90
11772;DHT22;12556;55.748;13.194;2023-08-06T06:44:37;16.10;99.90
11772;DHT22;12556;55.748;13.194;2023-08-06T06:47:05;16.10;99.90
11772;DHT22;12556;55.748;13.194;2023-08-06T06:49:32;16.20;99.90
11772;DHT22;12556;55.748;13.194;2023-08-06T06:51:59;16.30;99.90
11772;DHT22;12556;55.748;13.194;2023-08-06T06:54:26;16.40;99.90
11772;DHT22;12556;55.748;13.194;2023-08-06T06:56:53;16.50;99.90
11772;DHT22;12556;55.748;13.194;2023-08-06T06:59:19;16.60;99.90
11772;DHT22;12556;55.748;13.194;2023-08-06T07:01:46;16.50;99.90
11772;DHT22;12556;55.748;13.194;2023-08-06T07:04:15;16.70;99.90
11772;DHT22;12556;55.748;13.194;2023-08-06T07:06:41;16.80;99.90
11772;DHT22;12556;55.748;13.194;2023-08-06T07:09:08;16.90;99.90
11772;DHT22;12556;55.748;13.194;2023-08-06T07:11:35;17.00;99.90
11772;DHT22;12556;55.748;13.194;2023-08-06T07:14:02;17.00;99.90
11772;DHT22;12556;55.748;13.194;2023-08-06T07:16:29;17.10;99.90
11772;DHT22;12556;55.748;13.194;2023-08-06T07:18:56;17.20;99.90
11772;DHT22;12556;55.748;13.194;2023-08-06T07:21:24;17.30;99.90
11772;DHT22;12556;55.748;13.194;2023-08-06T07:23:51;17.40;99.90
11772;DHT22;12556;55.748;13.194;2023-08-06T07:26:20;17.40;99.90
11772;DHT22;12556;55.748;13.194;2023-08-06T07:28:47;17.50;99.90
11772;DHT22;12556;55.748;13.194;2023-08-06T07:31:14;17.50;99.90
11772;DHT22;12556;55.748;13.194;2023-08-06T07:33:40;17.50;99.90
11772;DHT22;12556;55.748;13.194;2023-08-06T07:36:08;17.60;99.90
11772;DHT22;12556;55.748;13.194;2023-08-06T07:38:37;17.60;99.90
11772;DHT22;12556;55.748;13.194;2023-08-06T07:41:04;17.60;99.90
11772;DHT22;12556;55.748;13.194;2023-08-06T07:43:31;17.60;99.90
11772;DHT22;12556;55.748;13.194;2023-08-06T07:45:58;17.50;99.90
11772;DHT22;12556;55.748;13.194;2023-08-06T07:48:26;17.50;99.90
11772;DHT22;12556;55.748;13.194;2023-08-06T07:50:53;17.50;99.90
11772;DHT22;12556;55.748;13.194;2023-08-06T07:53:20;17.40;99.90
11772;DHT22;12556;55.748;13.194;2023-08-06T07:55:52;17.40;99.90
11772;DHT22;12556;55.748;13.194;2023-08-06T07:58:19;17.40;99.90
11772;DHT22;12556;55.748;13.194;2023-08-06T08:00:46;17.40;99.90
11772;DHT22;12556;55.748;13.194;2023-08-06T08:03:14;17.40;99.90
11772;DHT22;12556;55.748;13.194;2023-08-06T08:05:41;17.40;99.90
11772;DHT22;12556;55.748;13.194;2023-08-06T08:08:08;17.50;99.90
11772;DHT22;12556;55.748;13.194;2023-08-06T08:10:35;17.40;99.90
11772;DHT22;12556;55.748;13.194;2023-08-06T08:13:05;17.40;99.90
11772;DHT22;12556;55.748;13.194;2023-08-06T08:15:34;17.30;99.90
11772;DHT22;12556;55.748;13.194;2023-08-06T08:18:01;17.40;99.90
11772;DHT22;12556;55.748;13.194;2023-08-06T08:20:28;17.40;99.90
11772;DHT22;12556;55.748;13.194;2023-08-06T08:22:59;17.40;99.90
11772;DHT22;12556;55.748;13.194;2023-08-06T08:25:26;17.40;99.90
11772;DHT22;12556;55.748;13.194;2023-08-06T08:27:53;17.40;99.90
11772;DHT22;12556;55.748;13.194;2023-08-06T08:30:22;17.50;99.90
11772;DHT22;12556;55.748;13.194;2023-08-06T08:32:50;17.40;99.90
11772;DHT22;12556;55.748;13.194;2023-08-06T08:35:17;17.40;99.90
11772;DHT22;12556;55.748;13.194;2023-08-06T08:37:45;17.40;99.90
11772;DHT22;12556;55.748;13.194;2023-08-06T08:40:13;17.40;99.90
11772;DHT22;12556;55.748;13.194;2023-08-06T08:42:41;17.30;99.90
11772;DHT22;12556;55.748;13.194;2023-08-06T08:45:11;17.30;99.90
11772;DHT22;12556;55.748;13.194;2023-08-06T08:47:41;17.40;99.90
11772;DHT22;12556;55.748;13.194;2023-08-06T08:50:09;17.40;99.90
11772;DHT22;12556;55.748;13.194;2023-08-06T08:52:38;17.30;99.90
11772;DHT22;12556;55.748;13.194;2023-08-06T08:55:07;17.20;99.90
11772;DHT22;12556;55.748;13.194;2023-08-06T08:57:34;17.10;99.90
11772;DHT22;12556;55.748;13.194;2023-08-06T09:00:01;17.00;99.90
11772;DHT22;12556;55.748;13.194;2023-08-06T09:02:29;17.00;99.90
11772;DHT22;12556;55.748;13.194;2023-08-06T09:04:59;17.00;99.90
11772;DHT22;12556;55.748;13.194;2023-08-06T09:07:31;16.90;99.90
11772;DHT22;12556;55.748;13.194;2023-08-06T09:10:02;16.90;99.90
11772;DHT22;12556;55.748;13.194;2023-08-06T09:12:31;16.80;99.90
11772;DHT22;12556;55.748;13.194;2023-08-06T09:14:58;16.80;99.90
11772;DHT22;12556;55.748;13.194;2023-08-06T09:17:25;16.60;99.90
11772;DHT22;12556;55.748;13.194;2023-08-06T09:19:54;16.60;99.90
11772;DHT22;12556;55.748;13.194;2023-08-06T09:22:22;16.60;99.90
11772;DHT22;12556;55.748;13.194;2023-08-06T09:24:49;16.60;99.90
11772;DHT22;12556;55.748;13.194;2023-08-06T09:27:16;16.60;99.90
11772;DHT22;12556;55.748;13.194;2023-08-06T09:29:44;16.50;99.90
11772;DHT22;12556;55.748;13.194;2023-08-06T09:32:11;16.50;99.90
11772;DHT22;12556;55.748;13.194;2023-08-06T09:34:39;16.50;99.90
11772;DHT22;12556;55.748;13.194;2023-08-06T09:37:08;16.50;99.90
11772;DHT22;12556;55.748;13.194;2023-08-06T09:39:39;16.50;99.90
11772;DHT22;12556;55.748;13.194;2023-08-06T09:42:06;16.60;99.90
11772;DHT22;12556;55.748;13.194;2023-08-06T09:44:33;16.70;99.90
11772;DHT22;12556;55.748;13.194;2023-08-06T09:47:02;16.70;99.90
11772;DHT22;12556;55.748;13.194;2023-08-06T09:49:41;16.60;99.90
11772;DHT22;12556;55.748;13.194;2023-08-06T09:52:11;16.60;99.90
11772;DHT22;12556;55.748;13.194;2023-08-06T09:54:40;16.50;99.90
11772;DHT22;12556;55.748;13.194;2023-08-06T09:57:07;16.60;99.90
11772;DHT22;12556;55.748;13.194;2023-08-06T09:59:34;16.70;99.90
11772;DHT22;12556;55.748;13.194;2023-08-06T10:02:03;16.70;99.90
11772;DHT22;12556;55.748;13.194;2023-08-06T10:04:33;16.70;99.90
11772;DHT22;12556;55.748;13.194;2023-08-06T10:07:00;16.80;99.90
11772;DHT22;12556;55.748;13.194;2023-08-06T10:09:28;16.70;99.90
11772;DHT22;12556;55.748;13.194;2023-08-06T10:11:56;16.60;99.90
11772;DHT22;12556;55.748;13.194;2023-08-06T10:14:26;16.60;99.90
11772;DHT22;12556;55.748;13.194;2023-08-06T10:16:57;16.60;99.90
11772;DHT22;12556;55.748;13.194;2023-08-06T10:19:25;16.70;99.90
11772;DHT22;12556;55.748;13.194;2023-08-06T10:22:11;16.80;99.90
11772;DHT22;12556;55.748;13.194;2023-08-06T10:24:49;16.70;99.90
11772;DHT22;12556;55.748;13.194;2023-08-06T10:27:32;16.70;99.90
11772;DHT22;12556;55.748;13.194;2023-08-06T10:30:30;16.80;99.90
11772;DHT22;12556;55.748;13.194;2023-08-06T10:32:58;16.70;99.90
11772;DHT22;12556;55.748;13.194;2023-08-06T10:35:30;16.60;99.90
11772;DHT22;12556;55.748;13.194;2023-08-06T10:38:03;16.70;99.90
11772;DHT22;12556;55.748;13.194;2023-08-06T10:40:31;16.70;99.90
11772;DHT22;12556;55.748;13.194;2023-08-06T10:43:00;16.70;99.90
11772;DHT22;12556;55.748;13.194;2023-08-06T10:45:27;16.70;99.90
11772;DHT22;12556;55.748;13.194;2023-08-06T10:47:56;16.70;99.90
11772;DHT22;12556;55.748;13.194;2023-08-06T10:50:24;16.80;99.90
11772;DHT22;12556;55.748;13.194;2023-08-06T10:52:51;16.80;99.90
11772;DHT22;12556;55.748;13.194;2023-08-06T10:55:25;16.80;99.90
11772;DHT22;12556;55.748;13.194;2023-08-06T10:57:53;16.80;99.90
11772;DHT22;12556;55.748;13.194;2023-08-06T11:00:22;16.80;99.90
11772;DHT22;12556;55.748;13.194;2023-08-06T11:02:52;16.80;99.90
11772;DHT22;12556;55.748;13.194;2023-08-06T11:05:19;16.80;99.90
11772;DHT22;12556;55.748;13.194;2023-08-06T11:07:46;16.80;99.90
11772;DHT22;12556;55.748;13.194;2023-08-06T11:10:14;16.90;99.90
11772;DHT22;12556;55.748;13.194;2023-08-06T11:12:41;16.90;99.90
11772;DHT22;12556;55.748;13.194;2023-08-06T11:15:09;17.00;99.90
11772;DHT22;12556;55.748;13.194;2023-08-06T11:17:40;17.10;99.90
11772;DHT22;12556;55.748;13.194;2023-08-06T11:20:08;17.10;99.90
11772;DHT22;12556;55.748;13.194;2023-08-06T11:22:36;17.20;99.90
11772;DHT22;12556;55.748;13.194;2023-08-06T11:25:04;17.20;99.90
11772;DHT22;12556;55.748;13.194;2023-08-06T11:27:31;17.20;99.90
11772;DHT22;12556;55.748;13.194;2023-08-06T11:29:57;17.20;99.90
11772;DHT22;12556;55.748;13.194;2023-08-06T11:32:24;17.10;99.90
11772;DHT22;12556;55.748;13.194;2023-08-06T11:34:54;17.10;99.90
11772;DHT22;12556;55.748;13.194;2023-08-06T11:37:22;17.00;99.90
11772;DHT22;12556;55.748;13.194;2023-08-06T11:39:50;17.00;99.90
11772;DHT22;12556;55.748;13.194;2023-08-06T11:42:17;17.00;99.90
11772;DHT22;12556;55.748;13.194;2023-08-06T11:44:44;17.00;99.90
11772;DHT22;12556;55.748;13.194;2023-08-06T11:47:14;17.00;99.90
11772;DHT22;12556;55.748;13.194;2023-08-06T11:49:42;17.00;99.90
11772;DHT22;12556;55.748;13.194;2023-08-06T11:52:14;17.00;99.90
11772;DHT22;12556;55.748;13.194;2023-08-06T11:54:42;17.00;99.90
11772;DHT22;12556;55.748;13.194;2023-08-06T11:57:09;17.00;99.90
11772;DHT22;12556;55.748;13.194;2023-08-06T11:59:37;16.90;99.90
11772;DHT22;12556;55.748;13.194;2023-08-06T12:02:05;16.90;99.90
11772;DHT22;12556;55.748;13.194;2023-08-06T12:05:01;17.00;99.90
11772;DHT22;12556;55.748;13.194;2023-08-06T12:07:31;17.00;99.90
11772;DHT22;12556;55.748;13.194;2023-08-06T12:09:58;17.10;99.90
11772;DHT22;12556;55.748;13.194;2023-08-06T12:12:26;17.10;99.90
11772;DHT22;12556;55.748;13.194;2023-08-06T12:14:54;17.10;99.90
11772;DHT22;12556;55.748;13.194;2023-08-06T12:17:21;17.00;99.90
11772;DHT22;12556;55.748;13.194;2023-08-06T12:19:48;17.00;99.90
11772;DHT22;12556;55.748;13.194;2023-08-06T12:22:16;17.00;99.90
11772;DHT22;12556;55.748;13.194;2023-08-06T12:24:46;17.00;99.90
11772;DHT22;12556;55.748;13.194;2023-08-06T12:27:13;17.00;99.90
11772;DHT22;12556;55.748;13.194;2023-08-06T12:29:44;17.00;99.90
11772;DHT22;12556;55.748;13.194;2023-08-06T12:32:12;17.00;99.90
11772;DHT22;12556;55.748;13.194;2023-08-06T12:34:39;16.90;99.90
11772;DHT22;12556;55.748;13.194;2023-08-06T12:37:06;17.10;99.90
11772;DHT22;12556;55.748;13.194;2023-08-06T12:39:33;16.80;99.90
11772;DHT22;12556;55.748;13.194;2023-08-06T12:42:03;16.80;99.90
11772;DHT22;12556;55.748;13.194;2023-08-06T12:44:30;16.70;99.90
11772;DHT22;12556;55.748;13.194;2023-08-06T12:46:57;16.80;99.90
11772;DHT22;12556;55.748;13.194;2023-08-06T12:49:25;16.80;99.90
11772;DHT22;12556;55.748;13.194;2023-08-06T12:51:53;16.80;99.90
11772;DHT22;12556;55.748;13.194;2023-08-06T12:54:20;16.80;99.90
11772;DHT22;12556;55.748;13.194;2023-08-06T12:56:48;16.80;99.90
11772;DHT22;12556;55.748;13.194;2023-08-06T12:59:17;16.80;99.90
11772;DHT22;12556;55.748;13.194;2023-08-06T13:01:44;16.80;99.90
11772;DHT22;12556;55.748;13.194;2023-08-06T13:04:11;16.80;99.90
11772;DHT22;12556;55.748;13.194;2023-08-06T13:06:38;16.70;99.90
11772;DHT22;12556;55.748;13.194;2023-08-06T13:09:06;16.70;99.90
11772;DHT22;12556;55.748;13.194;2023-08-06T13:11:34;16.50;99.90
11772;DHT22;12556;55.748;13.194;2023-08-06T13:14:05;16.60;99.90
11772;DHT22;12556;55.748;13.194;2023-08-06T13:16:33;16.50;99.90
11772;DHT22;12556;55.748;13.194;2023-08-06T13:19:01;16.50;99.90
11772;DHT22;12556;55.748;13.194;2023-08-06T13:21:32;16.50;99.90
11772;DHT22;12556;55.748;13.194;2023-08-06T13:23:59;16.40;99.90
11772;DHT22;12556;55.748;13.194;2023-08-06T13:26:27;16.40;99.90
11772;DHT22;12556;55.748;13.194;2023-08-06T13:28:54;16.40;99.90
11772;DHT22;12556;55.748;13.194;2023-08-06T13:31:21;16.40;99.90
11772;DHT22;12556;55.748;13.194;2023-08-06T13:33:49;16.30;99.90
11772;DHT22;12556;55.748;13.194;2023-08-06T13:36:16;16.30;99.90
11772;DHT22;12556;55.748;13.194;2023-08-06T13:38:43;16.30;99.90
11772;DHT22;12556;55.748;13.194;2023-08-06T13:41:10;16.20;99.90
11772;DHT22;12556;55.748;13.194;2023-08-06T13:43:37;16.20;99.90
11772;DHT22;12556;55.748;13.194;2023-08-06T13:46:03;16.10;99.90
11772;DHT22;12556;55.748;13.194;2023-08-06T13:48:30;16.20;99.90
11772;DHT22;12556;55.748;13.194;2023-08-06T13:50:59;16.20;99.90
11772;DHT22;12556;55.748;13.194;2023-08-06T13:53:25;16.10;99.90
11772;DHT22;12556;55.748;13.194;2023-08-06T13:55:55;16.00;99.90
11772;DHT22;12556;55.748;13.194;2023-08-06T13:58:23;16.00;99.90
11772;DHT22;12556;55.748;13.194;2023-08-06T14:00:51;16.00;99.90
11772;DHT22;12556;55.748;13.194;2023-08-06T14:03:19;16.00;99.90
11772;DHT22;12556;55.748;13.194;2023-08-06T14:05:45;16.00;99.90
11772;DHT22;12556;55.748;13.194;2023-08-06T14:08:14;16.00;99.90
11772;DHT22;12556;55.748;13.194;2023-08-06T14:10:43;16.00;99.90
11772;DHT22;12556;55.748;13.194;2023-08-06T14:13:10;16.10;99.90
11772;DHT22;12556;55.748;13.194;2023-08-06T14:15:38;16.00;99.90
11772;DHT22;12556;55.748;13.194;2023-08-06T14:18:06;16.10;99.90
11772;DHT22;12556;55.748;13.194;2023-08-06T14:20:34;16.10;99.90
11772;DHT22;12556;55.748;13.194;2023-08-06T14:23:01;16.10;99.90
11772;DHT22;12556;55.748;13.194;2023-08-06T14:25:29;16.10;99.90
11772;DHT22;12556;55.748;13.194;2023-08-06T14:27:56;16.10;99.90
11772;DHT22;12556;55.748;13.194;2023-08-06T14:30:23;16.00;99.90
11772;DHT22;12556;55.748;13.194;2023-08-06T14:32:49;15.90;99.90
11772;DHT22;12556;55.748;13.194;2023-08-06T14:35:16;15.90;99.90
11772;DHT22;12556;55.748;13.194;2023-08-06T14:37:43;15.70;99.90
11772;DHT22;12556;55.748;13.194;2023-08-06T14:40:11;15.80;99.90
11772;DHT22;12556;55.748;13.194;2023-08-06T14:42:40;15.80;99.90
11772;DHT22;12556;55.748;13.194;2023-08-06T14:45:07;15.80;99.90
11772;DHT22;12556;55.748;13.194;2023-08-06T14:47:34;15.70;99.90
11772;DHT22;12556;55.748;13.194;2023-08-06T14:50:00;15.70;99.90
11772;DHT22;12556;55.748;13.194;2023-08-06T14:52:27;15.70;99.90
11772;DHT22;12556;55.748;13.194;2023-08-06T14:54:55;15.70;99.90
11772;DHT22;12556;55.748;13.194;2023-08-06T14:57:22;15.60;99.90
11772;DHT22;12556;55.748;13.194;2023-08-06T14:59:54;15.70;99.90
11772;DHT22;12556;55.748;13.194;2023-08-06T15:02:22;15.60;99.90
11772;DHT22;12556;55.748;13.194;2023-08-06T15:04:49;15.60;99.90
11772;DHT22;12556;55.748;13.194;2023-08-06T15:07:15;15.50;99.90
11772;DHT22;12556;55.748;13.194;2023-08-06T15:09:42;15.50;99.90
11772;DHT22;12556;55.748;13.194;2023-08-06T15:12:10;15.50;99.90
11772;DHT22;12556;55.748;13.194;2023-08-06T15:14:37;15.50;99.90
11772;DHT22;12556;55.748;13.194;2023-08-06T15:17:06;15.50;99.90
11772;DHT22;12556;55.748;13.194;2023-08-06T15:19:32;15.50;99.90